createdAt,value
2022-08-31T00:01:32.035Z,6.77
2022-08-31T00:04:03.449Z,7.00
2022-08-31T00:06:32.486Z,7.10
2022-08-31T00:09:00.492Z,7.17
2022-08-31T00:11:31.624Z,6.97
2022-08-31T00:14:03.686Z,7.10
2022-08-31T00:16:34.054Z,6.53
2022-08-31T00:19:03.031Z,7.37
2022-08-31T00:21:31.098Z,7.03
2022-08-31T00:23:59.502Z,6.93
2022-08-31T00:26:27.688Z,6.93
2022-08-31T00:28:55.536Z,7.27
2022-08-31T00:31:24.761Z,7.93
2022-08-31T00:33:53.165Z,6.20
2022-08-31T00:36:23.135Z,6.60
2022-08-31T00:38:51.935Z,6.57
2022-08-31T00:41:23.924Z,7.20
2022-08-31T00:43:54.072Z,6.60
2022-08-31T00:46:30.746Z,6.90
2022-08-31T00:49:03.241Z,6.33
2022-08-31T00:51:34.073Z,6.60
2022-08-31T00:54:02.090Z,7.43
2022-08-31T00:56:31.311Z,6.07
2022-08-31T00:59:01.430Z,6.73
2022-08-31T01:01:30.823Z,7.77
2022-08-31T01:03:59.989Z,7.60
2022-08-31T01:06:28.429Z,6.32
2022-08-31T01:08:58.054Z,6.87
2022-08-31T01:11:26.678Z,5.93
2022-08-31T01:13:54.922Z,6.80
2022-08-31T01:16:27.818Z,6.80
2022-08-31T01:19:00.192Z,6.60
2022-08-31T01:21:30.999Z,5.90
2022-08-31T01:24:02.887Z,6.43
2022-08-31T01:26:32.754Z,6.70
2022-08-31T01:29:06.262Z,7.17
2022-08-31T01:31:38.134Z,7.07
2022-08-31T01:34:06.496Z,7.40
2022-08-31T01:36:36.700Z,7.10
2022-08-31T01:39:07.023Z,7.17
2022-08-31T01:41:35.068Z,6.23
2022-08-31T01:44:03.382Z,6.80
2022-08-31T01:46:31.255Z,6.80
2022-08-31T01:48:59.169Z,6.43
2022-08-31T01:51:27.137Z,6.30
2022-08-31T01:53:55.923Z,6.53
2022-08-31T01:56:27.007Z,7.03
2022-08-31T01:58:55.434Z,6.70
2022-08-31T02:01:33.128Z,7.23
2022-08-31T02:04:03.028Z,6.70
2022-08-31T02:06:32.122Z,7.33
2022-08-31T02:09:00.249Z,7.10
2022-08-31T02:11:29.464Z,6.10
2022-08-31T02:13:57.445Z,5.87
2022-08-31T02:16:25.326Z,6.50
2022-08-31T02:18:53.591Z,6.45
2022-08-31T02:21:22.342Z,6.50
2022-08-31T02:23:50.332Z,6.40
2022-08-31T02:26:18.418Z,6.50
2022-08-31T02:28:48.620Z,6.33
2022-08-31T02:31:16.674Z,6.70
2022-08-31T02:33:44.859Z,6.70
2022-08-31T02:36:13.065Z,7.07
2022-08-31T02:38:41.427Z,5.70
2022-08-31T02:41:10.409Z,7.20
2022-08-31T02:43:38.278Z,6.80
2022-08-31T02:46:07.721Z,6.67
2022-08-31T02:48:36.267Z,6.70
2022-08-31T02:51:06.845Z,6.88
2022-08-31T02:53:35.341Z,6.10
2022-08-31T02:56:03.514Z,5.40
2022-08-31T02:58:31.612Z,6.77
2022-08-31T03:00:59.434Z,6.00
2022-08-31T03:03:28.957Z,5.90
2022-08-31T03:05:56.794Z,5.93
2022-08-31T03:08:24.760Z,5.40
2022-08-31T03:10:53.750Z,5.70
2022-08-31T03:13:22.870Z,4.90
2022-08-31T03:15:52.109Z,5.97
2022-08-31T03:18:20.053Z,6.90
2022-08-31T03:20:49.246Z,6.03
2022-08-31T03:23:17.152Z,5.70
2022-08-31T03:25:45.071Z,5.07
2022-08-31T03:28:13.059Z,6.00
2022-08-31T03:30:41.150Z,5.00
2022-08-31T03:33:09.881Z,5.47
2022-08-31T03:35:37.755Z,5.27
2022-08-31T03:38:08.651Z,5.10
2022-08-31T03:40:37.149Z,5.40
2022-08-31T03:43:05.074Z,5.37
2022-08-31T03:45:34.993Z,5.78
2022-08-31T03:48:04.973Z,5.75
2022-08-31T03:50:34.804Z,4.50
2022-08-31T03:53:04.410Z,5.20
2022-08-31T03:55:34.228Z,5.17
2022-08-31T03:58:02.083Z,5.00
2022-08-31T04:00:31.267Z,4.67
2022-08-31T04:02:59.818Z,6.13
2022-08-31T04:05:28.187Z,6.17
2022-08-31T04:07:56.700Z,5.73
2022-08-31T04:10:24.514Z,6.10
2022-08-31T04:12:53.674Z,5.50
2022-08-31T04:15:23.515Z,5.40
2022-08-31T04:17:56.981Z,5.50
2022-08-31T04:20:30.082Z,5.50
2022-08-31T04:22:58.115Z,4.88
2022-08-31T04:25:25.939Z,4.90
2022-08-31T04:27:58.210Z,4.20
2022-08-31T04:30:26.413Z,4.87
2022-08-31T04:32:55.243Z,4.70
2022-08-31T04:35:23.469Z,4.40
2022-08-31T04:37:51.248Z,4.20
2022-08-31T04:40:20.304Z,4.50
2022-08-31T04:42:54.952Z,4.50
2022-08-31T04:45:23.648Z,5.20
2022-08-31T04:47:51.479Z,4.67
2022-08-31T04:50:19.470Z,4.83
2022-08-31T04:53:02.971Z,4.83
2022-08-31T04:55:32.212Z,5.10
2022-08-31T04:58:01.365Z,5.00
2022-08-31T05:00:29.272Z,4.63
2022-08-31T05:02:57.119Z,4.82
2022-08-31T05:05:24.957Z,3.83
2022-08-31T05:07:52.783Z,3.97
2022-08-31T05:10:21.640Z,4.17
2022-08-31T05:12:51.727Z,3.97
2022-08-31T05:15:20.971Z,3.57
2022-08-31T05:17:48.818Z,3.53
2022-08-31T05:20:16.773Z,3.57
2022-08-31T05:22:44.681Z,3.30
2022-08-31T05:25:12.505Z,3.53
2022-08-31T05:27:42.059Z,3.93
2022-08-31T05:30:11.248Z,4.03
2022-08-31T05:32:40.402Z,4.40
2022-08-31T05:35:09.473Z,4.50
2022-08-31T05:37:37.350Z,4.45
2022-08-31T05:40:06.131Z,4.95
2022-08-31T05:42:34.010Z,4.55
2022-08-31T05:45:01.908Z,3.90
2022-08-31T05:47:29.818Z,3.13
2022-08-31T05:49:58.974Z,3.13
2022-08-31T05:52:27.336Z,3.23
2022-08-31T05:54:55.374Z,3.10
2022-08-31T05:57:26.455Z,3.42
2022-08-31T05:59:54.781Z,3.70
2022-08-31T06:02:22.722Z,3.00
2022-08-31T06:04:58.798Z,3.08
2022-08-31T06:07:27.260Z,3.30
2022-08-31T06:09:55.338Z,3.17
2022-08-31T06:12:25.694Z,3.47
2022-08-31T06:14:55.307Z,3.10
2022-08-31T06:17:24.193Z,3.47
2022-08-31T06:19:52.108Z,3.47
2022-08-31T06:22:21.302Z,2.90
2022-08-31T06:24:49.165Z,3.00
2022-08-31T06:27:17.128Z,3.33
2022-08-31T06:29:45.227Z,3.00
2022-08-31T06:32:13.860Z,2.90
2022-08-31T06:34:42.795Z,3.20
2022-08-31T06:37:18.536Z,2.83
2022-08-31T06:39:48.472Z,3.23
2022-08-31T06:42:17.059Z,3.20
2022-08-31T06:44:45.254Z,3.20
2022-08-31T06:47:13.083Z,3.83
2022-08-31T06:49:40.925Z,3.40
2022-08-31T06:52:08.874Z,3.30
2022-08-31T06:54:36.963Z,3.58
2022-08-31T06:57:06.369Z,3.97
2022-08-31T06:59:34.311Z,3.40
2022-08-31T07:02:03.226Z,3.00
2022-08-31T07:04:33.904Z,4.17
2022-08-31T07:07:02.215Z,3.07
2022-08-31T07:09:30.320Z,3.50
2022-08-31T07:11:58.259Z,4.00
2022-08-31T07:14:28.434Z,3.73
2022-08-31T07:16:57.916Z,3.70
2022-08-31T07:19:26.234Z,4.18
2022-08-31T07:21:56.038Z,4.00
2022-08-31T07:24:27.756Z,3.67
2022-08-31T07:26:57.838Z,4.10
2022-08-31T07:29:30.194Z,4.45
2022-08-31T07:31:59.316Z,4.28
2022-08-31T07:34:29.425Z,3.67
2022-08-31T07:37:16.892Z,4.27
2022-08-31T07:40:07.550Z,4.20
2022-08-31T07:42:39.077Z,4.00
2022-08-31T07:45:13.744Z,4.27
2022-08-31T07:47:45.243Z,3.73
2022-08-31T07:50:14.509Z,4.53
2022-08-31T07:52:48.399Z,4.70
2022-08-31T07:55:17.937Z,4.20
2022-08-31T07:57:46.239Z,4.10
2022-08-31T08:00:21.186Z,4.87
2022-08-31T08:02:52.943Z,5.10
2022-08-31T08:05:27.865Z,4.40
2022-08-31T08:08:00.102Z,5.13
2022-08-31T08:10:30.138Z,5.43
2022-08-31T08:13:04.940Z,4.57
2022-08-31T08:15:37.254Z,4.37
2022-08-31T08:18:10.662Z,4.33
2022-08-31T08:20:39.215Z,4.00
2022-08-31T08:23:11.418Z,3.63
2022-08-31T08:25:43.264Z,3.93
2022-08-31T08:28:36.015Z,4.13
2022-08-31T08:31:07.569Z,4.05
2022-08-31T08:33:37.114Z,4.13
2022-08-31T08:36:08.524Z,4.60
2022-08-31T08:38:39.172Z,4.10
2022-08-31T08:41:12.183Z,4.15
2022-08-31T08:43:43.803Z,4.10
2022-08-31T08:46:33.890Z,4.17
2022-08-31T08:49:14.926Z,3.53
2022-08-31T08:51:43.777Z,3.90
2022-08-31T08:54:14.883Z,3.63
2022-08-31T08:56:49.071Z,3.60
2022-08-31T08:59:20.013Z,3.53
2022-08-31T09:01:53.027Z,4.03
2022-08-31T09:04:32.981Z,4.03
2022-08-31T09:07:22.963Z,4.17
2022-08-31T09:09:58.227Z,4.10
2022-08-31T09:12:35.272Z,3.30
2022-08-31T09:15:36.238Z,3.83
2022-08-31T09:18:15.167Z,3.47
2022-08-31T09:20:42.979Z,4.13
2022-08-31T09:23:14.211Z,3.50
2022-08-31T09:25:52.179Z,3.93
2022-08-31T09:28:35.058Z,3.97
2022-08-31T09:31:03.536Z,3.90
2022-08-31T09:33:35.782Z,4.03
2022-08-31T09:36:17.702Z,4.13
2022-08-31T09:38:47.888Z,3.70
2022-08-31T09:41:30.506Z,3.63
2022-08-31T09:44:25.284Z,4.00
2022-08-31T09:46:56.478Z,4.03
2022-08-31T09:49:28.191Z,4.20
2022-08-31T09:52:18.350Z,4.07
2022-08-31T09:55:10.401Z,3.50
2022-08-31T09:57:54.012Z,3.17
2022-08-31T10:00:33.116Z,3.70
2022-08-31T10:03:13.366Z,3.63
2022-08-31T10:05:44.504Z,3.77
2022-08-31T10:08:34.756Z,3.23
2022-08-31T10:11:10.319Z,3.33
2022-08-31T10:13:41.076Z,2.90
2022-08-31T10:16:17.084Z,3.20
2022-08-31T10:18:55.458Z,3.15
2022-08-31T10:21:31.949Z,4.10
2022-08-31T10:24:20.423Z,3.87
2022-08-31T10:26:54.093Z,3.50
2022-08-31T10:29:32.439Z,3.53
2022-08-31T10:32:06.008Z,3.35
2022-08-31T10:34:56.430Z,3.53
2022-08-31T10:37:36.124Z,4.20
2022-08-31T10:40:08.871Z,3.00
2022-08-31T10:42:39.985Z,3.30
2022-08-31T10:45:17.763Z,3.90
2022-08-31T10:47:49.354Z,3.30
2022-08-31T10:50:29.225Z,3.33
2022-08-31T10:53:13.585Z,3.33
2022-08-31T10:55:49.629Z,2.70
2022-08-31T10:58:28.302Z,3.30
2022-08-31T11:01:02.868Z,3.13
2022-08-31T11:03:53.426Z,3.23
2022-08-31T11:06:26.887Z,3.47
2022-08-31T11:09:03.295Z,3.47
2022-08-31T11:11:43.382Z,3.40
2022-08-31T11:14:29.998Z,3.70
2022-08-31T11:17:20.136Z,3.17
2022-08-31T11:20:06.813Z,3.20
2022-08-31T11:22:52.201Z,3.20
2022-08-31T11:25:51.939Z,2.80
2022-08-31T11:28:34.245Z,3.10
2022-08-31T11:31:04.998Z,3.53
2022-08-31T11:33:33.356Z,3.20
2022-08-31T11:36:07.691Z,3.30
2022-08-31T11:38:47.928Z,3.67
2022-08-31T11:41:36.609Z,4.18
2022-08-31T11:44:05.995Z,3.80
2022-08-31T11:47:05.159Z,3.23
2022-08-31T11:49:46.479Z,4.13
2022-08-31T11:52:29.236Z,4.20
2022-08-31T11:55:04.150Z,4.70
2022-08-31T11:57:59.445Z,3.90
2022-08-31T12:00:43.982Z,4.70
2022-08-31T12:03:55.631Z,4.63
2022-08-31T12:07:00.483Z,3.67
2022-08-31T12:09:52.054Z,4.70
2022-08-31T12:12:31.147Z,4.70
2022-08-31T12:15:10.730Z,4.23
2022-08-31T12:17:51.175Z,4.23
2022-08-31T12:20:27.004Z,4.90
2022-08-31T12:23:35.674Z,4.60
2022-08-31T12:26:35.587Z,5.17
2022-08-31T12:29:23.450Z,4.60
2022-08-31T12:32:21.328Z,4.20
2022-08-31T12:34:56.168Z,4.73
2022-08-31T12:37:29.275Z,4.85
2022-08-31T12:40:12.445Z,4.30
2022-08-31T12:42:48.778Z,4.60
2022-08-31T12:45:18.122Z,5.10
2022-08-31T12:47:56.538Z,4.72
2022-08-31T12:50:36.392Z,4.80
2022-08-31T12:53:35.852Z,4.85
2022-08-31T12:56:12.120Z,5.10
2022-08-31T12:58:56.214Z,4.50
2022-08-31T13:01:27.351Z,5.18
2022-08-31T13:03:59.673Z,4.60
2022-08-31T13:06:31.706Z,4.70
2022-08-31T13:09:00.898Z,4.80
2022-08-31T13:11:40.729Z,5.30
2022-08-31T13:14:12.578Z,4.63
2022-08-31T13:16:42.459Z,5.03
2022-08-31T13:19:23.514Z,5.60
2022-08-31T13:21:56.048Z,5.70
2022-08-31T13:24:30.983Z,4.90
2022-08-31T13:27:11.471Z,4.90
2022-08-31T13:29:44.989Z,4.57
2022-08-31T13:32:15.509Z,4.93
2022-08-31T13:34:43.411Z,4.63
2022-08-31T13:37:28.420Z,4.90
2022-08-31T13:39:56.652Z,4.93
2022-08-31T13:42:32.886Z,4.90
2022-08-31T13:45:03.414Z,5.10
2022-08-31T13:47:47.574Z,4.80
2022-08-31T13:50:25.668Z,4.90
2022-08-31T13:55:48.705Z,5.10
2022-08-31T13:58:27.418Z,5.07
2022-08-31T14:01:16.974Z,4.87
2022-08-31T14:03:57.093Z,5.20
2022-08-31T14:06:26.808Z,4.90
2022-08-31T14:09:03.197Z,4.80
2022-08-31T14:11:33.613Z,5.27
2022-08-31T14:14:08.199Z,4.97
2022-08-31T14:16:43.789Z,4.87
2022-08-31T14:19:31.140Z,4.97
2022-08-31T14:22:16.151Z,4.57
2022-08-31T14:24:45.296Z,5.03
2022-08-31T14:27:13.739Z,4.43
2022-08-31T14:29:41.970Z,4.80
2022-08-31T14:32:09.817Z,4.60
2022-08-31T14:34:41.053Z,4.17
2022-08-31T14:37:16.396Z,4.43
2022-08-31T14:39:47.922Z,4.83
2022-08-31T14:42:18.869Z,4.57
2022-08-31T14:44:56.453Z,4.53
2022-08-31T14:47:29.161Z,4.43
2022-08-31T14:50:05.455Z,4.33
2022-08-31T14:52:34.597Z,4.70
2022-08-31T14:55:08.988Z,4.60
2022-08-31T14:57:37.532Z,4.33
2022-08-31T15:00:09.574Z,4.77
2022-08-31T15:02:37.453Z,4.80
2022-08-31T15:05:08.397Z,5.30
2022-08-31T15:07:39.094Z,5.10
2022-08-31T15:10:12.750Z,4.57
2022-08-31T15:12:40.660Z,4.90
2022-08-31T15:15:11.220Z,5.47
2022-08-31T15:17:39.556Z,5.27
2022-08-31T15:20:11.320Z,5.03
2022-08-31T15:22:40.429Z,5.03
2022-08-31T15:25:12.759Z,4.50
2022-08-31T15:27:44.285Z,4.80
2022-08-31T15:30:14.582Z,5.33
2022-08-31T15:32:46.895Z,4.73
2022-08-31T15:35:19.224Z,4.88
2022-08-31T15:37:56.293Z,4.80
2022-08-31T15:40:29.083Z,4.80
2022-08-31T15:42:57.492Z,4.90
2022-08-31T15:45:29.816Z,4.53
2022-08-31T15:48:31.251Z,4.30
2022-08-31T15:51:00.565Z,4.77
2022-08-31T15:53:30.694Z,5.20
2022-08-31T15:56:05.769Z,5.18
2022-08-31T15:58:34.488Z,5.10
2022-08-31T16:01:05.523Z,5.15
2022-08-31T16:03:35.451Z,5.05
2022-08-31T16:06:05.454Z,4.67
2022-08-31T16:08:33.372Z,5.00
2022-08-31T16:11:02.652Z,5.17
2022-08-31T16:13:30.904Z,5.07
2022-08-31T16:15:59.913Z,4.83
2022-08-31T16:18:28.038Z,4.80
2022-08-31T16:20:56.289Z,4.70
2022-08-31T16:23:26.332Z,4.43
2022-08-31T16:25:54.310Z,4.10
2022-08-31T16:28:23.644Z,4.80
2022-08-31T16:30:52.023Z,5.10
2022-08-31T16:33:20.651Z,5.50
2022-08-31T16:35:48.953Z,4.60
2022-08-31T16:38:17.181Z,4.70
2022-08-31T16:40:45.424Z,5.20
2022-08-31T16:43:13.414Z,4.38
2022-08-31T16:45:42.956Z,4.30
2022-08-31T16:48:29.761Z,5.50
2022-08-31T16:50:58.174Z,5.40
2022-08-31T16:53:26.108Z,5.22
2022-08-31T16:55:54.279Z,4.40
2022-08-31T16:58:47.764Z,4.30
2022-08-31T17:01:16.707Z,3.42
2022-08-31T17:03:47.507Z,4.43
2022-08-31T17:06:16.147Z,4.90
2022-08-31T17:08:45.525Z,4.27
2022-08-31T17:11:16.675Z,3.90
2022-08-31T17:13:47.512Z,5.00
2022-08-31T17:16:21.304Z,5.03
2022-08-31T17:18:50.557Z,5.00
2022-08-31T17:21:20.414Z,5.40
2022-08-31T17:23:52.442Z,5.10
2022-08-31T17:26:21.604Z,5.20
2022-08-31T17:28:53.056Z,5.03
2022-08-31T17:31:22.409Z,4.70
2022-08-31T17:33:50.455Z,4.40
2022-08-31T17:36:20.053Z,4.73
2022-08-31T17:38:49.894Z,4.70
2022-08-31T17:41:18.248Z,4.70
2022-08-31T17:43:46.181Z,4.30
2022-08-31T17:46:15.560Z,5.53
2022-08-31T17:48:46.181Z,5.00
2022-08-31T17:51:27.009Z,4.90
2022-08-31T17:53:57.173Z,5.65
2022-08-31T17:56:26.289Z,5.47
2022-08-31T17:58:55.523Z,5.93
2022-08-31T18:01:27.474Z,5.18
2022-08-31T18:03:58.147Z,5.50
2022-08-31T18:06:26.392Z,4.80
2022-08-31T18:08:54.943Z,4.82
2022-08-31T18:11:23.543Z,4.50
2022-08-31T18:13:53.712Z,5.53
2022-08-31T18:16:21.827Z,5.07
2022-08-31T18:18:51.135Z,5.43
2022-08-31T18:21:24.230Z,4.97
2022-08-31T18:23:53.245Z,5.37
2022-08-31T18:26:23.400Z,5.10
2022-08-31T18:28:52.354Z,5.05
2022-08-31T18:31:30.532Z,4.43
2022-08-31T18:33:59.509Z,5.10
2022-08-31T18:36:31.340Z,4.80
2022-08-31T18:39:00.939Z,4.80
2022-08-31T18:41:48.170Z,5.33
2022-08-31T18:44:42.117Z,4.57
2022-08-31T18:47:12.508Z,5.07
2022-08-31T18:49:43.218Z,5.40
2022-08-31T18:52:19.133Z,5.73
2022-08-31T18:54:49.134Z,4.40
2022-08-31T18:57:19.752Z,5.50
2022-08-31T18:59:48.172Z,4.82
2022-08-31T19:02:18.485Z,4.70
2022-08-31T19:04:46.662Z,4.32
2022-08-31T19:07:16.992Z,5.40
2022-08-31T19:09:45.941Z,5.17
2022-08-31T19:12:17.068Z,5.00
2022-08-31T19:14:45.533Z,4.57
2022-08-31T19:17:13.823Z,4.65
2022-08-31T19:19:41.898Z,4.93
2022-08-31T19:22:10.943Z,5.00
2022-08-31T19:24:41.322Z,5.27
2022-08-31T19:27:10.593Z,5.50
2022-08-31T19:29:39.986Z,4.67
2022-08-31T19:32:10.409Z,4.53
2022-08-31T19:34:41.787Z,4.23
2022-08-31T19:37:12.716Z,4.50
2022-08-31T19:39:45.820Z,5.07
2022-08-31T19:42:16.602Z,4.10
2022-08-31T19:44:55.842Z,4.40
2022-08-31T19:47:38.873Z,4.18
2022-08-31T19:50:17.551Z,4.63
2022-08-31T19:52:46.390Z,4.07
2022-08-31T19:55:16.144Z,4.40
2022-08-31T19:57:44.645Z,4.90
2022-08-31T20:00:14.022Z,5.30
2022-08-31T20:02:43.021Z,4.93
2022-08-31T20:05:11.580Z,4.90
2022-08-31T20:07:41.524Z,4.83
2022-08-31T20:10:10.566Z,5.03
2022-08-31T20:12:42.745Z,4.90
2022-08-31T20:15:11.358Z,4.47
2022-08-31T20:17:41.409Z,5.13
2022-08-31T20:20:12.190Z,5.03
2022-08-31T20:22:41.095Z,4.97
2022-08-31T20:25:17.585Z,4.70
2022-08-31T20:27:50.602Z,5.77
2022-08-31T20:30:19.550Z,6.20
2022-08-31T20:32:47.546Z,4.60
2022-08-31T20:35:15.598Z,4.87
2022-08-31T20:37:43.536Z,5.13
2022-08-31T20:40:17.338Z,5.17
2022-08-31T20:42:45.409Z,5.63
2022-08-31T20:45:14.715Z,5.00
2022-08-31T20:48:14.409Z,5.90
2022-08-31T20:50:42.801Z,5.47
2022-08-31T20:53:38.807Z,5.93
2022-08-31T20:56:07.986Z,5.90
2022-08-31T20:58:35.804Z,6.10
2022-08-31T21:01:06.887Z,6.00
2022-08-31T21:03:35.090Z,6.30
2022-08-31T21:06:03.682Z,6.07
2022-08-31T21:08:31.485Z,5.90
2022-08-31T21:10:59.305Z,6.43
2022-08-31T21:13:27.210Z,6.70
2022-08-31T21:15:55.120Z,5.30
2022-08-31T21:18:25.187Z,5.80
2022-08-31T21:20:53.010Z,6.20
2022-08-31T21:23:21.571Z,6.40
2022-08-31T21:25:49.537Z,5.47
2022-08-31T21:28:18.513Z,6.13
2022-08-31T21:30:49.313Z,6.45
2022-08-31T21:33:17.432Z,5.93
2022-08-31T21:35:47.629Z,6.63
2022-08-31T21:38:15.428Z,5.93
2022-08-31T21:40:48.975Z,6.37
2022-08-31T21:43:16.972Z,5.50
2022-08-31T21:45:44.770Z,6.03
2022-08-31T21:48:12.591Z,6.45
2022-08-31T21:50:40.419Z,5.77
2022-08-31T21:53:09.567Z,7.50
2022-08-31T21:55:38.454Z,6.28
2022-08-31T21:58:06.249Z,6.30
2022-08-31T22:00:34.938Z,6.53
2022-08-31T22:03:03.357Z,6.10
2022-08-31T22:05:31.667Z,6.28
2022-08-31T22:07:59.497Z,6.37
2022-08-31T22:10:30.855Z,6.70
2022-08-31T22:12:58.729Z,6.53
2022-08-31T22:15:28.035Z,6.63
2022-08-31T22:18:18.018Z,6.23
2022-08-31T22:20:43.829Z,6.77
2022-08-31T22:23:12.090Z,6.10
2022-08-31T22:25:41.318Z,5.97
2022-08-31T22:28:10.109Z,6.23
2022-08-31T22:30:37.980Z,7.10
2022-08-31T22:33:06.078Z,6.95
2022-08-31T22:35:39.789Z,7.03
2022-08-31T22:38:08.999Z,6.63
2022-08-31T22:40:39.297Z,6.60
2022-08-31T22:43:09.583Z,6.53
2022-08-31T22:45:47.626Z,6.60
2022-08-31T22:48:16.395Z,6.40
2022-08-31T22:50:44.196Z,6.67
2022-08-31T22:53:12.001Z,7.53
2022-08-31T22:55:41.103Z,7.90
2022-08-31T22:58:10.654Z,7.50
2022-08-31T23:00:38.489Z,6.60
2022-08-31T23:03:06.633Z,6.55
2022-08-31T23:05:37.962Z,7.30
2022-08-31T23:08:07.586Z,7.33
2022-08-31T23:10:35.882Z,7.50
2022-08-31T23:13:03.866Z,7.50
2022-08-31T23:15:33.514Z,6.40
2022-08-31T23:18:02.063Z,7.07
2022-08-31T23:20:31.042Z,7.43
2022-08-31T23:23:00.950Z,7.23
2022-08-31T23:25:28.817Z,7.50
2022-08-31T23:27:56.614Z,6.90
2022-08-31T23:30:25.559Z,7.73
2022-08-31T23:32:54.738Z,7.43
2022-08-31T23:35:24.506Z,7.33
2022-08-31T23:37:54.255Z,7.53
2022-08-31T23:40:22.100Z,7.70
2022-08-31T23:42:50.483Z,7.45
2022-08-31T23:45:18.404Z,7.17
2022-08-31T23:47:46.195Z,7.50
2022-08-31T23:50:16.427Z,6.63
2022-08-31T23:52:45.772Z,7.33
2022-08-31T23:55:13.685Z,8.00
2022-08-31T23:57:41.866Z,7.40
